Tiempo atmosférico en la estación meteorológica de Benamejí, Córdoba (465 m.)



Fecha
DESCASC
Temp. máxima en grados centígrados (hora)
DESCASC
Temp. mínima en grados centígrados (hora)
DESCASC
Temp. media en grados centígrados
DESCASC
Racha de viento máxima en m/sg (hora)
DESCASC
Velocidad máxima media en intervalos de 10 minutos(hora)
DESCASC
Precipitaciones diarias en mm
DESCASC
Precipitaciones de 00:00 a 06:00 en mm
DESCASC
Precipitaciones de 06:00 a 12:00 en mm
DESCASC
Precipitaciones de 12:00 a 18:00 en mm
DESCASC
Precipitaciones de 18:00 a 24:00 en mm
DESCASC
17-02-2019 18.2 (16:10) 6.5 (08:20) 12.4 8.33 (00:20) 6.11 (19:50) 0 0 0 0 0
16-02-2019 17.5 (14:50) 7.5 (00:50) 12.5 11.39 (17:50) 7.5 (17:50) 0 0 0 0 0
15-02-2019 17.8 (15:50) 6.1 (08:10) 11.9 8.89 (13:00) 5.83 (17:30) 0 0 0 0 0
14-02-2019 16.5 (14:30) 6.7 (00:00) 11.6 11.39 (13:30) 8.06 (16:00) 0 0 0 0 0
13-02-2019 16.8 (15:10) 6.1 (00:00) 11.4 10 (17:00) 6.94 (17:10) 0 0 0 0 0
12-02-2019 16.7 (13:50) 6.2 (00:00) 11.5 10.83 (15:10) 7.5 (15:30) 0 0 0 0 0
11-02-2019 16.3 (15:40) 9.2 (00:00) 12.7 4.72 (13:40) 2.78 (13:50) 0 0 0 0 0
10-02-2019 13.1 (17:40) 5.2 (00:00) 9.2 5.56 (16:00) 3.33 (16:00) 0 0 0 0 0
09-02-2019 16.9 (14:20) 4.2 (00:00) 10.5 5 (15:50) 3.33 (04:00) 0 0 0 0 0
08-02-2019 19.1 (15:50) 4.5 (00:00) 11.8 5.28 (16:40) 3.61 (03:00) 0 0 0 0 0
07-02-2019 17.7 (16:10) 4.5 (00:00) 11.1 6.39 (15:40) 4.17 (07:20) 0 0 0 0 0
06-02-2019 20.3 (16:20) 5.2 (00:00) 12.7 5.83 (08:30) 4.72 (08:30) 0 0 0 0 0
05-02-2019 18.1 (17:00) 3.3 (00:00) 10.7 5.28 (16:40) 3.33 (16:40) 0 0 0 0 0
04-02-2019 15.2 (14:50) 0.8 (00:00) 8 4.72 (15:10) 3.06 (15:10) 0 0 0 0 0
03-02-2019 10.6 (14:40) 0.6 (00:00) 5.6 10 (15:50) 6.39 (16:10) 0 0 0 0 0
02-02-2019 9.6 (16:20) 3.5 (00:00) 6.6 12.22 (15:50) 7.78 (05:10) 0 0 0 0 0
01-02-2019 11.3 (05:50) 5.4 (00:00) 8.4 18.33 (12:30) 12.5 (07:10) 19 9 9.2 0.4 0.4
31-01-2019 13.5 (14:30) 9.2 (00:00) 11.3 14.17 (14:10) 9.17 (14:10) 5.2 4.8 0.2 0.2 0
30-01-2019 12.2 (15:30) 7.7 (00:00) 9.9 9.72 (18:30) 6.11 (01:30) 3.6 0.2 0 0 3.4
29-01-2019 11 (13:10) 7 (00:00) 9 9.72 (15:40) 6.67 (15:40) 0 0 0 0 0
28-01-2019 11.7 (16:20) 2.8 (00:00) 7.2 9.44 (15:00) 5.83 (17:40) 0 0 0 0 0
27-01-2019 11.7 (13:00) 5.1 (00:00) 8.4 9.17 (13:30) 5.83 (13:30) 0 0 0 0 0
26-01-2019 19.7 (16:20) 5.3 (00:00) 12.5 5.83 (17:30) 3.61 (17:30) 0 0 0 0 0
25-01-2019 17.7 (16:20) 5.5 (00:00) 11.6 8.61 (15:20) 5 (16:40) 0 0 0 0 0
24-01-2019 13.7 (15:50) 8.7 (00:00) 11.2 7.78 (04:30) 5 (04:30) 0 0 0 0 0
23-01-2019 11.9 (16:00) 6.4 (00:00) 9.1 11.39 (18:20) 6.94 (18:20) 0 0 0 0 0
22-01-2019 9.8 (14:10) 0.9 (00:00) 5.4 10 (21:50) 5.83 (21:50) 0 0 0 0 0
21-01-2019 11.4 (15:30) 2.2 (00:00) 6.8 8.61 (14:50) 5.28 (15:10) 0 0 0 0 0
20-01-2019 10.1 (02:40) 5.6 (00:00) 7.9 10.83 (11:00) 6.67 (11:00) 5.6 2.6 1.8 1.2 0
19-01-2019 11.5 (12:50) 5.5 (00:00) 8.5 9.72 (23:10) 6.67 (23:20) 3 0 0 0 3

Gráficas

Temp. máximas Temp. mínimas Temp. medias Precipitaciones Rachas de viento máximas Velocidades máximas media en intervalos de 10 minutos

Datos horarios

Fecha y hora oficial Temperatura (ºC) Velocidad del viento (km/h) Dirección del viento Racha (km/h) Dirección de racha Precipitación (mm) Presión (hPa) Tendencia (hPa) Humedad (%)
2019-02-17 23:00:00 7.6 12 Sur 18 Sur 0 -- -- 75
2019-02-17 22:00:00 9.1 10 Sur 19 Sur 0 -- -- 66
2019-02-17 21:00:00 9.8 16 Sur 26 Sur 0 -- -- 62
2019-02-17 20:00:00 10.2 22 Sur 30 Sur 0 -- -- 64
2019-02-17 19:00:00 13.1 18 Sur 26 Sur 0 -- -- 50
2019-02-17 18:00:00 15.5 20 Sur 29 Sur 0 -- -- 45
2019-02-17 17:00:00 17.6 17 Sur 27 Sur 0 -- -- 35
2019-02-17 16:00:00 17.9 16 Sur 26 Sur 0 -- -- 34
2019-02-17 15:00:00 17.8 13 Sur 25 Sur 0 -- -- 32
2019-02-17 14:00:00 17.2 15 Sur 28 Sur 0 -- -- 37
2019-02-17 13:00:00 16.2 16 Sur 27 Sur 0 -- -- 39
2019-02-17 12:00:00 14.9 15 Sudeste 30 Sudeste 0 -- -- 44
2019-02-17 11:00:00 13.5 14 Sudeste 25 Sudeste 0 -- -- 50
2019-02-17 10:00:00 9.7 2 Este 11 Nordeste 0 -- -- 50
2019-02-17 09:00:00 8 10 Este 15 Este 0 -- -- 47
2019-02-17 08:00:00 6.9 7 Este 18 Sudeste 0 -- -- 51
2019-02-17 07:00:00 8.5 14 Sudeste 27 Sudeste 0 -- -- 60
2019-02-17 06:00:00 7.8 13 Sudeste 19 Sudeste 0 -- -- 60
2019-02-17 05:00:00 7.5 2 Sudeste 19 Sudeste 0 -- -- 62
2019-02-17 04:00:00 8.5 10 Este 22 Sudeste 0 -- -- 60
2019-02-17 03:00:00 8 13 Sudeste 17 Sur 0 -- -- 60
2019-02-17 02:00:00 8.6 14 Sudeste 29 Sudeste 0 -- -- 69
2019-02-17 01:00:00 8.8 15 Sur 30 Sur 0 -- -- 71
2019-02-17 00:00:00 9.4 19 Sur 30 Sur 0 -- -- 68
2019-02-16 23:00:00 9.9 20 Sur 27 Sur 0 -- -- 68
2019-02-16 22:00:00 10 14 Sur 21 Sur 0 -- -- 65
2019-02-16 21:00:00 10.6 13 Sur 19 Sur 0 -- -- 55
2019-02-16 20:00:00 12.1 12 Sur 34 Sur 0 -- -- 45
2019-02-16 19:00:00 13 15 Sudoeste 35 Sur 0 -- -- 48
2019-02-16 18:00:00 13.7 24 Sur 41 Sur 0 -- -- 49
2019-02-16 17:00:00 16.4 20 Sur 30 Sudoeste 0 -- -- 45
2019-02-16 16:00:00 15 19 Sur 32 Sur 0 -- -- 51
2019-02-16 15:00:00 17 22 Sur 29 Sudoeste 0 -- -- 43
2019-02-16 14:00:00 16.5 15 Sudoeste 26 Sur 0 -- -- 43
2019-02-16 13:00:00 16 12 Sur 21 Sur 0 -- -- 42
2019-02-16 12:00:00 14.7 6 Sur 17 Sudeste 0 -- -- 34
2019-02-16 11:00:00 13.1 10 Sur 15 Sur 0 -- -- 42
2019-02-16 10:00:00 11.6 8 Sudeste 17 Sudeste 0 -- -- 41
2019-02-16 09:00:00 9.3 6 Este 16 Sudeste 0 -- -- 46
2019-02-16 08:00:00 9.4 12 Este 19 Este 0 -- -- 46
2019-02-16 07:00:00 9.5 12 Sudeste 19 Sudeste 0 -- -- 49
2019-02-16 06:00:00 9.3 9 Sudeste 12 Sudeste 0 -- -- 50
2019-02-16 05:00:00 9.4 6 Este 11 Este 0 -- -- 54
2019-02-16 04:00:00 9.3 10 Este 16 Este 0 -- -- 57
2019-02-16 03:00:00 8.8 12 Sudeste 23 Sur 0 -- -- 72
2019-02-16 02:00:00 8.4 16 Sur 28 Sur 0 -- -- 75
2019-02-16 01:00:00 7.8 18 Sur 26 Sur 0 -- -- 76
2019-02-16 00:00:00 8.7 13 Sur 17 Sur 0 -- -- 70
2019-02-15 23:00:00 9.8 3 Sudeste 10 Sur 0 -- -- 67
2019-02-15 22:00:00 9.1 8 Sudeste 15 Sur 0 -- -- 72
2019-02-15 21:00:00 9.4 12 Sur 21 Sur 0 -- -- 73
2019-02-15 20:00:00 10.2 16 Sur 23 Sur 0 -- -- 67
2019-02-15 19:00:00 11.7 16 Sur 26 Sudoeste 0 -- -- 60
2019-02-15 18:00:00 14.5 18 Sur 27 Sur 0 -- -- 50
2019-02-15 17:00:00 17 18 Sur 26 Sur 0 -- -- 42
2019-02-15 16:00:00 17.8 12 Sur 23 Sudoeste 0 -- -- 40
2019-02-15 15:00:00 17.5 7 Sur 20 Sur 0 -- -- 40
2019-02-15 14:00:00 16.6 12 Sur 22 Sur 0 -- -- 43
2019-02-15 13:00:00 15.8 12 Sur 32 Sur 0 -- -- 47
2019-02-15 12:00:00 13.8 8 Este 15 Nordeste 0 -- -- 52
2019-02-15 11:00:00 11.9 6 Nordeste 12 Nordeste 0 -- -- 59
2019-02-15 10:00:00 10 5 Nordeste 16 Este 0 -- -- 66
2019-02-15 09:00:00 7.2 10 Este 15 Sudeste 0 -- -- 80
2019-02-15 08:00:00 6.2 9 Este 14 Este 0 -- -- 83
2019-02-15 07:00:00 7.2 12 Este 18 Sudeste 0 -- -- 79
2019-02-15 06:00:00 6.9 9 Este 18 Sudeste 0 -- -- 79
2019-02-15 05:00:00 7.2 14 Sudeste 18 Sudeste 0 -- -- 80
2019-02-15 04:00:00 7.9 9 Este 12 Este 0 -- -- 77
2019-02-15 03:00:00 7.9 6 Este 18 Sudeste 0 -- -- 79
2019-02-15 02:00:00 8.8 14 Sudeste 23 Sudeste 0 -- -- 78
2019-02-15 01:00:00 8.9 13 Sudeste 23 Sudeste 0 -- -- 73
2019-02-15 00:00:00 8.9 12 Sudeste 22 Sudeste 0 -- -- 69
2019-02-14 23:00:00 9.3 18 Sudeste 32 Sudeste 0 -- -- 67
2019-02-14 22:00:00 9 15 Sudeste 21 Sudeste 0 -- -- 61
2019-02-14 21:00:00 9.3 10 Sudeste 27 Sur 0 -- -- 62
2019-02-14 20:00:00 9.6 15 Sur 29 Sur 0 -- -- 61
2019-02-14 19:00:00 11.7 20 Sur 34 Sur 0 -- -- 54
2019-02-14 18:00:00 14.1 29 Sur 38 Sur 0 -- -- 44
2019-02-14 17:00:00 15.3 25 Sur 41 Sur 0 -- -- 44
2019-02-14 16:00:00 15.6 29 Sur 41 Sur 0 -- -- 43
2019-02-14 15:00:00 16.2 23 Sur 33 Sudeste 0 -- -- 39
2019-02-14 14:00:00 16.1 27 Sur 41 Sudeste 0 -- -- 34
2019-02-14 13:00:00 15.4 25 Sur 39 Sudeste 0 -- -- 36
2019-02-14 12:00:00 14.3 26 Sur 35 Sudeste 0 -- -- 38
2019-02-14 11:00:00 13 5 Este 14 Este 0 -- -- 41
2019-02-14 10:00:00 10.7 7 Sudeste 14 Sudeste 0 -- -- 47
2019-02-14 09:00:00 7.8 11 Sudeste 18 Sudeste 0 -- -- 54
2019-02-14 08:00:00 7 13 Sudeste 19 Sudeste 0 -- -- 55
2019-02-14 07:00:00 7 13 Sudeste 21 Sudeste 0 -- -- 57
2019-02-14 06:00:00 7.6 14 Sudeste 28 Sudeste 0 -- -- 58
2019-02-14 05:00:00 8.4 21 Sudeste 30 Sudeste 0 -- -- 60
2019-02-14 04:00:00 8.5 14 Sudeste 21 Sudeste 0 -- -- 55
2019-02-14 03:00:00 8.7 15 Sudeste 30 Sudeste 0 -- -- 58
2019-02-14 02:00:00 8.8 17 Sudeste 31 Sudeste 0 -- -- 58
2019-02-14 01:00:00 9.5 21 Sudeste 36 Sudeste 0 -- -- 56
2019-02-14 00:00:00 8.9 16 Sudeste 21 Sudeste 0 -- -- 56
2019-02-13 23:00:00 9.1 15 Sudeste 23 Sudeste 0 -- -- 55
2019-02-13 22:00:00 9.3 17 Sudeste 23 Sudeste 0 -- -- 56
2019-02-13 21:00:00 9.7 15 Sur 26 Sur 0 -- -- 51
2019-02-13 20:00:00 10.5 19 Sur 32 Sur 0 -- -- 49
2019-02-13 19:00:00 12.2 23 Sur 34 Sur 0 -- -- 44
2019-02-13 18:00:00 14.8 24 Sur 33 Sur 0 -- -- 37
2019-02-13 17:00:00 16.2 23 Sur 36 Sur 0 -- -- 29
2019-02-13 16:00:00 16.7 22 Sur 32 Sur 0 -- -- 30
2019-02-13 15:00:00 16.7 19 Sur 31 Sur 0 -- -- 33
2019-02-13 14:00:00 16.4 17 Sur 28 Sur 0 -- -- 36
2019-02-13 13:00:00 14.9 3 Nordeste 13 Nordeste 0 -- -- 36
2019-02-13 12:00:00 13.5 6 Nordeste 13 Nordeste 0 -- -- 40
2019-02-13 11:00:00 11.5 5 Nordeste 10 Nordeste 0 -- -- 49
2019-02-13 10:00:00 9.3 5 Este 14 Este 0 -- -- 58
2019-02-13 09:00:00 6.9 8 Nordeste 15 Este 0 -- -- 71
2019-02-13 08:00:00 6.7 9 Este 16 Este 0 -- -- 73
2019-02-13 07:00:00 7 7 Este 12 Este 0 -- -- 69
2019-02-13 06:00:00 6.9 8 Este 16 Sudeste 0 -- -- 75
2019-02-13 05:00:00 7.3 11 Sudeste 18 Sudeste 0 -- -- 75
2019-02-13 04:00:00 7.5 9 Sudeste 12 Sudeste 0 -- -- 76
2019-02-13 03:00:00 8.2 6 Sudeste 12 Sudeste 0 -- -- 76
2019-02-13 02:00:00 7.9 7 Sudeste 12 Sudeste 0 -- -- 78
2019-02-13 01:00:00 8.1 9 Sudeste 16 Sur 0 -- -- 77
2019-02-13 00:00:00 8.7 14 Sur 17 Sur 0 -- -- 75
2019-02-12 23:00:00 9.4 12 Sudeste 17 Sudeste 0 -- -- 72
2019-02-12 22:00:00 9.5 14 Sur 20 Sur 0 -- -- 73
2019-02-12 21:00:00 9.6 9 Sur 27 Sur 0 -- -- 73
2019-02-12 20:00:00 10.2 13 Sur 24 Sur 0 -- -- 69
2019-02-12 19:00:00 12 16 Sudeste 34 Sudeste 0 -- -- 60
2019-02-12 18:00:00 13.9 23 Sudeste 35 Sur 0 -- -- 54
2019-02-12 17:00:00 15.4 25 Sur 37 Sur 0 -- -- 50
2019-02-12 16:00:00 15.7 22 Sur 39 Sur 0 -- -- 49
2019-02-12 15:00:00 16.3 22 Sur 34 Sur 0 -- -- 48
2019-02-12 14:00:00 16.4 14 Sudeste 27 Sudeste 0 -- -- 46
2019-02-12 13:00:00 16.1 21 Sur 33 Sudeste 0 -- -- 48
2019-02-12 12:00:00 14.4 4 Nordeste 11 Nordeste 0 -- -- 60
2019-02-12 11:00:00 12.1 6 Nordeste 8 Nordeste 0 -- -- 64
2019-02-12 10:00:00 10.4 5 Este 9 Sudeste 0 -- -- 73
2019-02-12 09:00:00 7.2 6 Este 13 Nordeste 0 -- -- 89
2019-02-12 08:00:00 6.5 8 Este 11 Este 0 -- -- 89
2019-02-12 07:00:00 7.2 7 Nordeste 10 Nordeste 0 -- -- 89
2019-02-12 06:00:00 7.2 3 Este 10 Este 0 -- -- 89
2019-02-12 05:00:00 7.3 10 Nordeste 11 Nordeste 0 -- -- 89
2019-02-12 04:00:00 7.5 4 Este 10 Nordeste 0 -- -- 88
2019-02-12 03:00:00 7.6 2 Este 14 Este 0 -- -- 86
2019-02-12 02:00:00 8.5 11 Este 12 Nordeste 0 -- -- 80
2019-02-12 01:00:00 9.5 5 Este 12 Este 0 -- -- 74
2019-02-12 00:00:00 9.7 7 Este 12 Este 0 -- -- 74
2019-02-11 23:00:00 10.4 0 Calma 7 Nordeste 0 -- -- 71
2019-02-11 22:00:00 11.2 3 Nordeste 5 Noroeste 0 -- -- 67
2019-02-11 21:00:00 11.6 3 Oeste 9 Noroeste 0 -- -- 64
2019-02-11 20:00:00 12 6 Noroeste 10 Noroeste 0 -- -- 65
2019-02-11 19:00:00 13.4 8 Noroeste 15 Noroeste 0 -- -- 60
2019-02-11 18:00:00 15.7 8 Noroeste 16 Noroeste 0 -- -- 52
2019-02-11 17:00:00 16.1 8 Norte 16 Norte 0 -- -- 53
2019-02-11 16:00:00 16.2 5 Noroeste 14 Oeste 0 -- -- 51
2019-02-11 15:00:00 15.8 6 Oeste 14 Oeste 0 -- -- 54
2019-02-11 14:00:00 14.6 7 Noroeste 17 Noroeste 0 -- -- 61
2019-02-11 13:00:00 14.3 7 Noroeste 15 Noroeste 0 -- -- 64
2019-02-11 12:00:00 12.1 3 Nordeste 10 Nordeste 0 -- -- 74
2019-02-11 11:00:00 11.3 3 Este 7 Nordeste 0 -- -- 81
2019-02-11 10:00:00 10 5 Nordeste 8 Nordeste 0 -- -- 87
2019-02-11 09:00:00 9.4 6 Este 9 Este 0 -- -- 89
2019-02-11 08:00:00 9.4 6 Este 8 Este 0 -- -- 89
2019-02-11 07:00:00 9.4 5 Este 8 Sudeste 0 -- -- 89
2019-02-11 06:00:00 9.4 0 Calma 5 Noroeste 0 -- -- 82
2019-02-11 05:00:00 9.9 0 Calma 8 Este 0 -- -- 75
2019-02-11 04:00:00 10.2 5 Este 7 Este 0 -- -- 73
2019-02-11 03:00:00 10.2 5 Este 8 Este 0 -- -- 72
2019-02-11 02:00:00 10.2 0 Calma 7 Oeste 0 -- -- 71
2019-02-11 01:00:00 10.6 3 Norte 10 Noroeste 0 -- -- 70
2019-02-11 00:00:00 10.5 0 Calma 3 Oeste 0 -- -- 69
2019-02-10 23:00:00 10.4 2 Sudeste 7 Noroeste 0 -- -- 69
2019-02-10 22:00:00 10.9 4 Norte 10 Norte 0 -- -- 66
2019-02-10 21:00:00 10.6 7 Noroeste 9 Noroeste 0 -- -- 67
2019-02-10 20:00:00 11.1 6 Noroeste 12 Oeste 0 -- -- 65
2019-02-10 19:00:00 11.6 5 Noroeste 7 Norte 0 -- -- 61
2019-02-10 18:00:00 12.5 5 Noroeste 11 Noroeste 0 -- -- 59
2019-02-10 17:00:00 12.5 4 Noroeste 14 Norte 0 -- -- 58
2019-02-10 16:00:00 12.2 12 Norte 20 Noroeste 0 -- -- 62
2019-02-10 15:00:00 11.9 9 Norte 17 Norte 0 -- -- 61
2019-02-10 14:00:00 11.4 6 Noroeste 14 Noroeste 0 -- -- 66
2019-02-10 13:00:00 11.1 7 Noroeste 13 Nordeste 0 -- -- 65
2019-02-10 12:00:00 10.5 3 Nordeste 6 Norte 0 -- -- 65
2019-02-10 11:00:00 9.6 3 Nordeste 6 Nordeste 0 -- -- 78
2019-02-10 10:00:00 7.8 3 Sudeste 6 Este 0 -- -- 89
2019-02-10 09:00:00 6.8 3 Este 9 Sudoeste 0 -- -- 91
2019-02-10 08:00:00 6.4 3 Este 8 Sudeste 0 -- -- 90
2019-02-10 07:00:00 6.3 4 Sur 8 Sur 0 -- -- 90
2019-02-10 06:00:00 6.3 3 Este 5 Este 0 -- -- 90
2019-02-10 05:00:00 5.3 4 Nordeste 9 Nordeste 0 -- -- 91
2019-02-10 04:00:00 5.7 3 Nordeste 9 Nordeste 0 -- -- 87
2019-02-10 03:00:00 6.4 3 Este 10 Este 0 -- -- 83
2019-02-10 02:00:00 7.4 8 Este 10 Este 0 -- -- 78
2019-02-10 01:00:00 8.1 5 Nordeste 6 Nordeste 0 -- -- 74
2019-02-10 00:00:00 8.3 6 Nordeste 8 Este 0 -- -- 72
2019-02-09 23:00:00 10.5 6 Este 8 Este 0 -- -- 60
2019-02-09 22:00:00 10.7 4 Este 7 Oeste 0 -- -- 62
2019-02-09 21:00:00 11 4 Oeste 8 Sudoeste 0 -- -- 60
2019-02-09 20:00:00 11.7 4 Noroeste 9 Oeste 0 -- -- 58
2019-02-09 19:00:00 13.1 6 Noroeste 13 Noroeste 0 -- -- 51
2019-02-09 18:00:00 15.4 10 Noroeste 16 Oeste 0 -- -- 44
2019-02-09 17:00:00 16.5 7 Noroeste 16 Noroeste 0 -- -- 39
2019-02-09 16:00:00 16.8 10 Noroeste 18 Noroeste 0 -- -- 36
2019-02-09 15:00:00 16.6 8 Noroeste 13 Sudoeste 0 -- -- 29
2019-02-09 14:00:00 16.3 4 Oeste 10 Oeste 0 -- -- 40
2019-02-09 13:00:00 14.5 5 Norte 9 Noroeste 0 -- -- 47
2019-02-09 12:00:00 12.6 2 Nordeste 6 Oeste 0 -- -- 57
2019-02-09 11:00:00 9.4 2 Sudeste 8 Nordeste 0 -- -- 74
2019-02-09 10:00:00 6.4 5 Nordeste 11 Nordeste 0 -- -- 85
2019-02-09 09:00:00 4.6 11 Nordeste 14 Nordeste 0 -- -- 91
2019-02-09 08:00:00 4.4 9 Nordeste 11 Nordeste 0 -- -- 92
2019-02-09 07:00:00 5 2 Este 9 Este 0 -- -- 90
2019-02-09 06:00:00 4.9 3 Este 14 Nordeste 0 -- -- 90
2019-02-09 05:00:00 5.4 6 Nordeste 12 Este 0 -- -- 90
2019-02-09 04:00:00 5.8 12 Nordeste 13 Nordeste 0 -- -- 89
2019-02-09 03:00:00 7.2 7 Este 8 Este 0 -- -- 81
2019-02-09 02:00:00 7.6 3 Nordeste 9 Este 0 -- -- 73
2019-02-09 01:00:00 8.7 4 Este 8 Este 0 -- -- 69
2019-02-09 00:00:00 10 2 Sudeste 5 Este 0 -- -- 61
2019-02-08 23:00:00 11.3 3 Este 7 Este 0 -- -- 57
2019-02-08 22:00:00 11.3 0 Calma 4 Oeste 0 -- -- 57
2019-02-08 21:00:00 11.6 2 Noroeste 12 Noroeste 0 -- -- 55
2019-02-08 20:00:00 12.2 9 Oeste 12 Oeste 0 -- -- 52
2019-02-08 19:00:00 13.8 8 Noroeste 16 Oeste 0 -- -- 46
2019-02-08 18:00:00 16.1 9 Noroeste 17 Oeste 0 -- -- 39
2019-02-08 17:00:00 18 8 Noroeste 19 Oeste 0 -- -- 35
2019-02-08 16:00:00 19.1 10 Sudoeste 18 Sudoeste 0 -- -- 27
2019-02-08 15:00:00 18.1 5 Noroeste 14 Sur 0 -- -- 33
2019-02-08 14:00:00 16.7 6 Noroeste 10 Oeste 0 -- -- 37
2019-02-08 13:00:00 15.3 4 Nordeste 8 Norte 0 -- -- 39
2019-02-08 12:00:00 12.6 4 Nordeste 9 Nordeste 0 -- -- 48
2019-02-08 11:00:00 9 6 Nordeste 10 Nordeste 0 -- -- 58
2019-02-08 10:00:00 6.1 8 Nordeste 12 Nordeste 0 -- -- 72
2019-02-08 09:00:00 5.3 10 Nordeste 12 Nordeste 0 -- -- 73
2019-02-08 08:00:00 4.9 2 Este 12 Nordeste 0 -- -- 74
2019-02-08 07:00:00 4.9 9 Nordeste 11 Nordeste 0 -- -- 75
2019-02-08 06:00:00 5.5 7 Este 17 Este 0 -- -- 72
2019-02-08 05:00:00 5.5 4 Este 14 Nordeste 0 -- -- 74
2019-02-08 04:00:00 5.5 12 Nordeste 15 Este 0 -- -- 74
2019-02-08 03:00:00 5.7 13 Nordeste 14 Nordeste 0 -- -- 74
2019-02-08 02:00:00 6.6 5 Nordeste 13 Nordeste 0 -- -- 68
2019-02-08 01:00:00 7.5 4 Este 12 Nordeste 0 -- -- 62
2019-02-08 00:00:00 9.3 3 Este 12 Este 0 -- -- 54
2019-02-07 23:00:00 10.3 7 Nordeste 11 Este 0 -- -- 50
2019-02-07 22:00:00 11.9 4 Nordeste 6 Norte 0 -- -- 45
2019-02-07 21:00:00 12.1 5 Nordeste 6 Este 0 -- -- 46
2019-02-07 20:00:00 12.9 3 Oeste 10 Noroeste 0 -- -- 43
2019-02-07 19:00:00 14.5 5 Noroeste 13 Noroeste 0 -- -- 38
2019-02-07 18:00:00 16.7 9 Noroeste 19 Noroeste 0 -- -- 30
2019-02-07 17:00:00 17.4 12 Noroeste 21 Noroeste 0 -- -- 33
2019-02-07 16:00:00 17.6 12 Noroeste 23 Noroeste 0 -- -- 37
2019-02-07 15:00:00 17.1 9 Noroeste 17 Noroeste 0 -- -- 39
2019-02-07 14:00:00 16.4 6 Noroeste 11 Oeste 0 -- -- 42
2019-02-07 13:00:00 14.7 5 Noroeste 10 Noroeste 0 -- -- 49
2019-02-07 12:00:00 13.2 3 Nordeste 9 Este 0 -- -- 51
2019-02-07 11:00:00 9.1 9 Nordeste 14 Nordeste 0 -- -- 65
2019-02-07 10:00:00 6.6 10 Nordeste 18 Nordeste 0 -- -- 76
2019-02-07 09:00:00 4.9 13 Nordeste 18 Nordeste 0 -- -- 86
2019-02-07 08:00:00 4.7 9 Nordeste 17 Nordeste 0 -- -- 88
2019-02-07 07:00:00 4.8 11 Nordeste 13 Nordeste 0 -- -- 89
2019-02-07 06:00:00 5.3 4 Este 10 Este 0 -- -- 85
2019-02-07 05:00:00 5.6 3 Este 9 Nordeste 0 -- -- 81
2019-02-07 04:00:00 6.3 6 Este 8 Este 0 -- -- 80
2019-02-07 03:00:00 7.3 4 Este 8 Este 0 -- -- 71
2019-02-07 02:00:00 8 3 Este 8 Este 0 -- -- 68
2019-02-07 01:00:00 9.8 3 Este 8 Este 0 -- -- 60
2019-02-07 00:00:00 10.8 6 Este 8 Este 0 -- -- 57
2019-02-06 23:00:00 11.1 0 Calma -- -- 0 -- -- 57
2019-02-06 22:00:00 12.6 0 Calma 2 Nordeste 0 -- -- 50
2019-02-06 21:00:00 13.6 3 Nordeste 3 Nordeste 0 -- -- 47
2019-02-06 20:00:00 14 2 Noroeste 10 Noroeste 0 -- -- 46
2019-02-06 19:00:00 14.9 8 Noroeste 17 Noroeste 0 -- -- 44
2019-02-06 18:00:00 17.6 10 Noroeste 19 Noroeste 0 -- -- 34
2019-02-06 17:00:00 20 12 Oeste 19 Oeste 0 -- -- 16
2019-02-06 16:00:00 19.8 6 Sudoeste 14 Oeste 0 -- -- 18
2019-02-06 15:00:00 19.2 8 Oeste 17 Sudoeste 0 -- -- 22
2019-02-06 14:00:00 17.6 6 Noroeste 13 Oeste 0 -- -- 30
2019-02-06 13:00:00 16.5 3 Noroeste 8 Noroeste 0 -- -- 30
2019-02-06 12:00:00 14.4 2 Este 10 Este 0 -- -- 39
2019-02-06 11:00:00 10.6 7 Nordeste 14 Nordeste 0 -- -- 50
2019-02-06 10:00:00 7.6 10 Este 14 Nordeste 0 -- -- 62
2019-02-06 09:00:00 5.3 10 Nordeste 21 Nordeste 0 -- -- 71
2019-02-06 08:00:00 6 7 Este 13 Nordeste 0 -- -- 66
2019-02-06 07:00:00 5.5 2 Este 9 Este 0 -- -- 66
2019-02-06 06:00:00 6.3 2 Sudeste 6 Sur 0 -- -- 61
2019-02-06 05:00:00 6.1 7 Sur 10 Este 0 -- -- 63
2019-02-06 04:00:00 6.3 10 Nordeste 14 Nordeste 0 -- -- 67
2019-02-06 03:00:00 7.4 9 Nordeste 13 Nordeste 0 -- -- 58
2019-02-06 02:00:00 8.2 4 Sudeste 9 Este 0 -- -- 54
2019-02-06 01:00:00 8.7 9 Nordeste 9 Nordeste 0 -- -- 54
2019-02-06 00:00:00 10.1 2 Este 7 Este 0 -- -- 45
2019-02-05 23:00:00 11.1 0 Calma 3 Sudeste 0 -- -- 41
2019-02-05 22:00:00 11.7 0 Calma 8 Norte 0 -- -- 39
2019-02-05 21:00:00 12.5 5 Nordeste 9 Norte 0 -- -- 37
2019-02-05 20:00:00 13 4 Oeste 13 Noroeste 0 -- -- 36
2019-02-05 19:00:00 14.7 7 Noroeste 16 Oeste 0 -- -- 30
2019-02-05 18:00:00 17.1 10 Noroeste 17 Oeste 0 -- -- 27
2019-02-05 17:00:00 18.1 10 Noroeste 19 Noroeste 0 -- -- 26
2019-02-05 16:00:00 17.7 10 Noroeste 16 Noroeste 0 -- -- 23
2019-02-05 15:00:00 17.8 7 Noroeste 15 Oeste 0 -- -- 23
2019-02-05 14:00:00 16.9 6 Oeste 10 Oeste 0 -- -- 22
2019-02-05 13:00:00 15 4 Noroeste 9 Noroeste 0 -- -- 29
2019-02-05 12:00:00 12.3 0 Calma 10 Nordeste 0 -- -- 40
2019-02-05 11:00:00 8.5 6 Nordeste 12 Nordeste 0 -- -- 47
2019-02-05 10:00:00 6 2 Este 10 Este 0 -- -- 59
2019-02-05 09:00:00 3.9 8 Este 12 Nordeste 0 -- -- 64
2019-02-05 08:00:00 3.5 8 Nordeste 17 Este 0 -- -- 67
2019-02-05 07:00:00 3.4 7 Este 13 Nordeste 0 -- -- 70
2019-02-05 06:00:00 3.7 9 Este 13 Nordeste 0 -- -- 69
2019-02-05 05:00:00 4 6 Este 11 Este 0 -- -- 68
2019-02-05 04:00:00 4.9 4 Este 6 Este 0 -- -- 65
2019-02-05 03:00:00 4.2 5 Nordeste 9 Este 0 -- -- 69
2019-02-05 02:00:00 5.3 8 Nordeste 11 Nordeste 0 -- -- 67
2019-02-05 01:00:00 6.3 7 Nordeste 9 Nordeste 0 -- -- 59
2019-02-05 00:00:00 7.3 4 Este 8 Sur 0 -- -- 53
2019-02-04 23:00:00 7.4 3 Sudeste 7 Sur 0 -- -- 50
2019-02-04 22:00:00 8 4 Sur 5 Sur 0 -- -- 47
2019-02-04 21:00:00 8.6 2 Sudoeste 6 Oeste 0 -- -- 45
2019-02-04 20:00:00 9.7 4 Oeste 10 Oeste 0 -- -- 43
2019-02-04 19:00:00 11.5 5 Sudoeste 9 Oeste 0 -- -- 39
2019-02-04 18:00:00 13.9 5 Noroeste 14 Noroeste 0 -- -- 33
2019-02-04 17:00:00 14.2 10 Noroeste 15 Noroeste 0 -- -- 33
2019-02-04 16:00:00 14.8 10 Noroeste 17 Noroeste 0 -- -- 25
2019-02-04 15:00:00 15.1 9 Oeste 14 Oeste 0 -- -- 25
2019-02-04 14:00:00 13.7 3 Norte 9 Norte 0 -- -- 18
2019-02-04 13:00:00 12.2 4 Sur 10 Sudoeste 0 -- -- 25
2019-02-04 12:00:00 9.8 6 Nordeste 14 Nordeste 0 -- -- 30
2019-02-04 11:00:00 7.6 5 Nordeste 15 Norte 0 -- -- 41
2019-02-04 10:00:00 4.5 5 Nordeste 10 Nordeste 0 -- -- 52
2019-02-04 09:00:00 1.2 6 Nordeste 12 Nordeste 0 -- -- 65
2019-02-04 08:00:00 1.5 5 Este 13 Nordeste 0 -- -- 62
2019-02-04 07:00:00 1.8 9 Nordeste 12 Este 0 -- -- 63
2019-02-04 06:00:00 1.6 9 Este 12 Sudeste 0 -- -- 65
2019-02-04 05:00:00 1.4 6 Este 10 Este 0 -- -- 64
2019-02-04 04:00:00 1.1 6 Nordeste 12 Este 0 -- -- 69
2019-02-04 03:00:00 2.1 7 Este 11 Nordeste 0 -- -- 66
2019-02-04 02:00:00 2.6 6 Nordeste 8 Nordeste 0 -- -- 62
2019-02-04 01:00:00 3.3 3 Este 6 Norte 0 -- -- 53
2019-02-04 00:00:00 4.3 5 Norte 6 Norte 0 -- -- 48
2019-02-03 23:00:00 4.4 2 Noroeste 9 Nordeste 0 -- -- 47
2019-02-03 22:00:00 4.9 2 Norte 9 Norte 0 -- -- 45
2019-02-03 21:00:00 5.7 8 Norte 12 Norte 0 -- -- 42
2019-02-03 20:00:00 6.5 8 Nordeste 18 Norte 0 -- -- 41
2019-02-03 19:00:00 7.7 10 Norte 26 Norte 0 -- -- 37
2019-02-03 18:00:00 9.4 16 Norte 35 Noroeste 0 -- -- 31
2019-02-03 17:00:00 9.9 18 Norte 35 Norte 0 -- -- 28
2019-02-03 16:00:00 10.1 22 Norte 36 Norte 0 -- -- 26
2019-02-03 15:00:00 10.5 17 Nordeste 32 Nordeste 0 -- -- 23
2019-02-03 14:00:00 9.9 15 Nordeste 34 Nordeste 0 -- -- 30
2019-02-03 13:00:00 8.9 18 Nordeste 30 Nordeste 0 -- -- 34
2019-02-03 12:00:00 6.2 4 Norte 15 Norte 0 -- -- 67
2019-02-03 11:00:00 3.8 5 Noroeste 10 Noroeste 0 -- -- 73
2019-02-03 10:00:00 2.4 4 Noroeste 6 Noroeste 0 -- -- 78
2019-02-03 09:00:00 0.7 4 Norte 10 Noroeste 0 -- -- 82
2019-02-03 08:00:00 0.8 5 Norte 11 Noroeste 0 -- -- 80
2019-02-03 07:00:00 1.3 3 Norte 8 Noroeste 0 -- -- 77
2019-02-03 06:00:00 0.9 6 Este 10 Este 0 -- -- 82
2019-02-03 05:00:00 1.2 3 Oeste 7 Noroeste 0 -- -- 77
2019-02-03 04:00:00 1.5 4 Oeste 7 Oeste 0 -- -- 77
2019-02-03 03:00:00 2.1 0 Calma 9 Oeste 0 -- -- 76
2019-02-03 02:00:00 2.5 5 Oeste 10 Oeste 0 -- -- 75
2019-02-03 01:00:00 3 5 Oeste 10 Noroeste 0 -- -- 73
2019-02-03 00:00:00 3.5 8 Noroeste 12 Oeste 0 -- -- 72
2019-02-02 23:00:00 4.4 8 Noroeste 17 Noroeste 0 -- -- 69
2019-02-02 22:00:00 5.2 12 Noroeste 22 Noroeste 0 -- -- 68
2019-02-02 21:00:00 6 12 Noroeste 24 Noroeste 0 -- -- 64
2019-02-02 20:00:00 7 13 Noroeste 26 Noroeste 0 -- -- 58
2019-02-02 19:00:00 7.6 14 Noroeste 35 Noroeste 0 -- -- 56
2019-02-02 18:00:00 8.8 20 Noroeste 40 Noroeste 0 -- -- 52
2019-02-02 17:00:00 9.1 22 Noroeste 43 Oeste 0 -- -- 55
2019-02-02 16:00:00 9.2 26 Noroeste 44 Noroeste 0 -- -- 54
2019-02-02 15:00:00 9 21 Noroeste 39 Noroeste 0 -- -- 56
2019-02-02 14:00:00 7.3 17 Noroeste 33 Oeste 0 -- -- 65
2019-02-02 13:00:00 7.1 20 Oeste 39 Oeste 0 -- -- 68
2019-02-02 12:00:00 6.7 19 Noroeste 41 Oeste 0 -- -- 69
2019-02-02 11:00:00 6.3 23 Oeste 38 Oeste 0 -- -- 76
2019-02-02 10:00:00 6.1 18 Oeste 40 Oeste 0 -- -- 80
2019-02-02 09:00:00 6 22 Oeste 36 Oeste 0 -- -- 82
2019-02-02 08:00:00 6 18 Oeste 30 Oeste 0 -- -- 83
2019-02-02 07:00:00 6.5 23 Oeste 40 Oeste 0 -- -- 78
2019-02-02 06:00:00 6.2 23 Oeste 43 Sudoeste 0 -- -- 86
2019-02-02 05:00:00 6.2 26 Sudoeste 40 Sudoeste 0 -- -- 86
2019-02-02 04:00:00 6.1 24 Oeste 39 Sudoeste 0 -- -- 85
2019-02-02 03:00:00 6 25 Oeste 37 Oeste 0 -- -- 85
2019-02-02 02:00:00 5.3 16 Oeste 35 Sudoeste 0 -- -- 85
2019-02-02 01:00:00 5.5 28 Oeste 42 Oeste 0 -- -- 82
2019-02-02 00:00:00 5.8 23 Oeste 36 Oeste 0 -- -- 83
2019-02-01 23:00:00 6.2 25 Oeste 49 Oeste 0.2 -- -- 83
2019-02-01 22:00:00 7.5 23 Oeste 48 Oeste 0 -- -- 72
2019-02-01 21:00:00 7.6 25 Oeste 44 Oeste 0 -- -- 73
2019-02-01 20:00:00 7.4 23 Oeste 46 Oeste 0 -- -- 77
2019-02-01 19:00:00 7.2 35 Oeste 60 Oeste 0.2 -- -- 83
2019-02-01 18:00:00 9.5 35 Sudoeste 55 Sudoeste 0 -- -- 78
2019-02-01 17:00:00 10.5 28 Sudoeste 54 Sudoeste 0.2 -- -- 69
2019-02-01 16:00:00 9.8 27 Oeste 54 Sudoeste 0.2 -- -- 79
2019-02-01 15:00:00 10.1 23 Oeste 51 Oeste 0 -- -- 73
2019-02-01 14:00:00 9.6 30 Oeste 53 Oeste 0 -- -- 75
2019-02-01 13:00:00 9.7 29 Oeste 66 Oeste 0 -- -- 79
2019-02-01 12:00:00 9.1 30 Oeste 50 Oeste 0 -- -- 90
2019-02-01 11:00:00 8.8 21 Oeste 38 Oeste 0 -- -- 92
2019-02-01 10:00:00 8.1 20 Oeste 49 Oeste 0 -- -- 94
2019-02-01 09:00:00 9.6 31 Oeste 57 Oeste 2 -- -- 95
2019-02-01 08:00:00 11 22 Sudoeste 64 Sudoeste 3.4 -- -- 96
2019-02-01 07:00:00 11.2 41 Sudoeste 59 Sudoeste 3.8 -- -- 96
2019-02-01 06:00:00 11.3 30 Sudoeste 46 Sudoeste 3.6 -- -- 96
2019-02-01 05:00:00 10.9 26 Sudoeste 39 Sudoeste 3.4 -- -- 96
2019-02-01 04:00:00 10.6 19 Sur 36 Sur 1.4 -- -- 94
2019-02-01 03:00:00 10.5 20 Sur 28 Sudoeste 0 -- -- 95
2019-02-01 02:00:00 10.5 23 Sur 30 Sur 0.4 -- -- 95
2019-02-01 01:00:00 10.3 18 Sur 34 Sur 0.2 -- -- 92
2019-02-01 00:00:00 11 22 Sur 38 Sudoeste 0 -- -- 85
2019-01-31 23:00:00 10.9 28 Sudoeste 48 Sudoeste 0 -- -- 89
2019-01-31 22:00:00 11.7 28 Sudoeste 50 Sudoeste 0 -- -- 81
2019-01-31 21:00:00 11.2 23 Sudoeste 38 Sudoeste 0 -- -- 84
2019-01-31 20:00:00 11.3 19 Sudoeste 35 Sur 0 -- -- 84
2019-01-31 19:00:00 11.4 20 Sudoeste 36 Sudoeste 0 -- -- 85
2019-01-31 18:00:00 12.4 18 Sudoeste 37 Sudoeste 0 -- -- 78
2019-01-31 17:00:00 12.3 20 Sudoeste 47 Sudoeste 0 -- -- 81
2019-01-31 16:00:00 12.2 31 Sudoeste 44 Sudoeste 0 -- -- 83
2019-01-31 15:00:00 12.7 24 Oeste 51 Oeste 0 -- -- 83
2019-01-31 14:00:00 13 27 Sudoeste 41 Sudoeste 0 -- -- 83
2019-01-31 13:00:00 11.2 21 Sudoeste 34 Oeste 0.2 -- -- 95
2019-01-31 12:00:00 10.9 23 Oeste 40 Oeste 0 -- -- 93
2019-01-31 11:00:00 10.8 26 Oeste 39 Oeste 0 -- -- 92
2019-01-31 10:00:00 10.6 27 Sudoeste 39 Sudoeste 0.2 -- -- 96
2019-01-31 09:00:00 10.4 23 Sudoeste 32 Sudoeste 0 -- -- 96
2019-01-31 08:00:00 10.4 16 Sudoeste 30 Oeste 0 -- -- 96
2019-01-31 07:00:00 10.3 18 Oeste 34 Oeste 0 -- -- 96
2019-01-31 06:00:00 10.1 20 Oeste 35 Sudoeste 0 -- -- 96
2019-01-31 05:00:00 9.8 21 Sudoeste 30 Sudoeste 0.6 -- -- 96
2019-01-31 04:00:00 9.7 14 Sudoeste 32 Sudoeste 1.4 -- -- 96
2019-01-31 03:00:00 9.8 15 Sudoeste 28 Oeste 1.4 -- -- 96
2019-01-31 02:00:00 9.9 17 Sudoeste 27 Oeste 0.6 -- -- 96
2019-01-31 01:00:00 9.6 9 Sudoeste 22 Sudoeste 0.8 -- -- 96
2019-01-31 00:00:00 9.2 11 Sudoeste 22 Sur 0.8 -- -- 95
2019-01-30 23:00:00 8.5 12 Sur 17 Sur 0 -- -- 94
2019-01-30 22:00:00 8.1 5 Sur 10 Sur 0 -- -- 95
2019-01-30 21:00:00 7.9 4 Sudeste 12 Sudoeste 0.6 -- -- 94
2019-01-30 20:00:00 7.8 8 Sudoeste 23 Sudoeste 1.4 -- -- 92
2019-01-30 19:00:00 8.1 17 Oeste 35 Oeste 0.6 -- -- 89
2019-01-30 18:00:00 10.9 19 Sudoeste 30 Oeste 0 -- -- 70
2019-01-30 17:00:00 12 15 Oeste 27 Oeste 0 -- -- 63
2019-01-30 16:00:00 12.2 14 Oeste 28 Noroeste 0 -- -- 62
2019-01-30 15:00:00 11.5 15 Oeste 26 Oeste 0 -- -- 63
2019-01-30 14:00:00 10.8 11 Noroeste 28 Noroeste 0 -- -- 66
2019-01-30 13:00:00 10.6 17 Noroeste 32 Noroeste 0 -- -- 64
2019-01-30 12:00:00 10 15 Noroeste 31 Noroeste 0 -- -- 70
2019-01-30 11:00:00 9.1 18 Noroeste 29 Noroeste 0 -- -- 75
2019-01-30 10:00:00 8.6 13 Noroeste 25 Noroeste 0 -- -- 90
2019-01-30 09:00:00 8.4 12 Noroeste 24 Noroeste 0 -- -- 92
2019-01-30 08:00:00 8.6 13 Noroeste 31 Oeste 0 -- -- 91
2019-01-30 07:00:00 9.1 20 Oeste 34 Oeste 0 -- -- 90
2019-01-30 06:00:00 9 11 Oeste 22 Sudoeste 0.2 -- -- 93
2019-01-30 05:00:00 8.8 9 Oeste 18 Oeste 0 -- -- 92
2019-01-30 04:00:00 8.8 12 Oeste 30 Oeste 0 -- -- 90
2019-01-30 03:00:00 9 17 Oeste 28 Oeste 0 -- -- 88
2019-01-30 02:00:00 8.7 12 Sudoeste 32 Sudoeste 0 -- -- 90
2019-01-30 01:00:00 10 15 Oeste 29 Oeste 0 -- -- 80
2019-01-30 00:00:00 10.2 6 Noroeste 18 Oeste 0 -- -- 82
2019-01-29 23:00:00 10.6 13 Oeste 28 Oeste 0 -- -- 80
2019-01-29 22:00:00 10.7 18 Oeste 28 Oeste 0 -- -- 79
2019-01-29 21:00:00 10.5 14 Oeste 23 Sudoeste 0 -- -- 83
2019-01-29 20:00:00 10.8 15 Oeste 32 Oeste 0 -- -- 79
2019-01-29 19:00:00 10.9 15 Oeste 25 Oeste 0 -- -- 77
2019-01-29 18:00:00 10.6 10 Oeste 24 Oeste 0 -- -- 77
2019-01-29 17:00:00 10.5 12 Oeste 24 Oeste 0 -- -- 76
2019-01-29 16:00:00 10.4 15 Oeste 35 Oeste 0 -- -- 75
2019-01-29 15:00:00 10.8 19 Oeste 32 Oeste 0 -- -- 71
2019-01-29 14:00:00 10.4 15 Oeste 29 Oeste 0 -- -- 73
2019-01-29 13:00:00 10.3 17 Noroeste 30 Noroeste 0 -- -- 72
2019-01-29 12:00:00 9.4 10 Oeste 19 Oeste 0 -- -- 81
2019-01-29 11:00:00 8.5 5 Sudoeste 11 Oeste 0 -- -- 87
2019-01-29 10:00:00 7.5 7 Noroeste 16 Noroeste 0 -- -- 91
2019-01-29 09:00:00 7 9 Noroeste 14 Noroeste 0 -- -- 93
2019-01-29 08:00:00 7.5 2 Noroeste 8 Noroeste 0 -- -- 90
2019-01-29 07:00:00 7.7 5 Oeste 9 Sudoeste 0 -- -- 91
2019-01-29 06:00:00 7.9 0 Calma 9 Sudoeste 0 -- -- 88
2019-01-29 05:00:00 8 6 Oeste 14 Oeste 0 -- -- 88
2019-01-29 04:00:00 8.2 8 Oeste 17 Oeste 0 -- -- 87
2019-01-29 03:00:00 8.3 5 Sudoeste 12 Oeste 0 -- -- 85
2019-01-29 02:00:00 8.5 10 Oeste 17 Oeste 0 -- -- 84
2019-01-29 01:00:00 8.2 9 Oeste 17 Noroeste 0 -- -- 83
2019-01-29 00:00:00 8.1 12 Noroeste 21 Noroeste 0 -- -- 82
2019-01-28 23:00:00 8.7 12 Noroeste 22 Oeste 0 -- -- 79
2019-01-28 22:00:00 8.8 9 Noroeste 21 Oeste 0 -- -- 77
2019-01-28 21:00:00 9.8 14 Oeste 30 Oeste 0 -- -- 73
2019-01-28 20:00:00 10.6 19 Oeste 33 Oeste 0 -- -- 73
2019-01-28 19:00:00 10.7 15 Oeste 30 Noroeste 0 -- -- 69
2019-01-28 18:00:00 10.9 17 Oeste 34 Noroeste 0 -- -- 64
2019-01-28 17:00:00 11.3 21 Oeste 33 Noroeste 0 -- -- 62
2019-01-28 16:00:00 11.6 19 Noroeste 31 Oeste 0 -- -- 60
2019-01-28 15:00:00 10.6 19 Noroeste 34 Noroeste 0 -- -- 62
2019-01-28 14:00:00 10.2 11 Noroeste 21 Oeste 0 -- -- 61
2019-01-28 13:00:00 8.7 6 Norte 22 Noroeste 0 -- -- 65
2019-01-28 12:00:00 7.8 12 Noroeste 19 Noroeste 0 -- -- 68
2019-01-28 11:00:00 6.2 6 Noroeste 11 Norte 0 -- -- 76
2019-01-28 10:00:00 5.1 2 Noroeste 6 Sur 0 -- -- 81
2019-01-28 09:00:00 3.3 0 Calma 3 Sudoeste 0 -- -- 87
2019-01-28 08:00:00 2.9 0 Calma 8 Norte 0 -- -- 87
2019-01-28 07:00:00 3.9 5 Noroeste 9 Noroeste 0 -- -- 84
2019-01-28 06:00:00 4.7 4 Este 7 Nordeste 0 -- -- 81
2019-01-28 05:00:00 4.6 3 Nordeste 6 Este 0 -- -- 81
2019-01-28 04:00:00 4.1 0 Calma 8 Sur 0 -- -- 83
2019-01-28 03:00:00 4.2 5 Sur 9 Sur 0 -- -- 79
2019-01-28 02:00:00 5.5 2 Norte 8 Noroeste 0 -- -- 74
2019-01-28 01:00:00 5.9 5 Noroeste 8 Oeste 0 -- -- 73
2019-01-28 00:00:00 6.2 2 Noroeste 6 Noroeste 0 -- -- 73
2019-01-27 23:00:00 6.8 5 Noroeste 12 Norte 0 -- -- 71
2019-01-27 22:00:00 7.4 5 Noroeste 14 Noroeste 0 -- -- 70
2019-01-27 21:00:00 8.4 3 Noroeste 18 Norte 0 -- -- 70
2019-01-27 20:00:00 9.8 9 Noroeste 15 Noroeste 0 -- -- 70
2019-01-27 19:00:00 10.4 9 Noroeste 23 Noroeste 0 -- -- 69
2019-01-27 18:00:00 11 14 Noroeste 26 Noroeste 0 -- -- 70
2019-01-27 17:00:00 10.5 10 Noroeste 24 Noroeste 0 -- -- 76
2019-01-27 16:00:00 10.2 16 Noroeste 25 Noroeste 0 -- -- 76
2019-01-27 15:00:00 10.2 14 Noroeste 24 Oeste 0 -- -- 75
2019-01-27 14:00:00 9.9 11 Noroeste 33 Oeste 0 -- -- 79
2019-01-27 13:00:00 11.7 8 Noroeste 19 Noroeste 0 -- -- 74
2019-01-27 12:00:00 10.2 8 Noroeste 19 Oeste 0 -- -- 84
2019-01-27 11:00:00 9.3 7 Noroeste 12 Noroeste 0 -- -- 89
2019-01-27 10:00:00 9.2 3 Sudeste 4 Sudeste 0 -- -- 93
2019-01-27 09:00:00 7.7 2 Sur 10 Sur 0 -- -- 94
2019-01-27 08:00:00 7.7 7 Sudeste 10 Sudeste 0 -- -- 95
2019-01-27 07:00:00 7.4 3 Sudeste 10 Este 0 -- -- 96
2019-01-27 06:00:00 6.8 5 Nordeste 8 Nordeste 0 -- -- 96
2019-01-27 05:00:00 6.4 5 Nordeste 8 Nordeste 0 -- -- 95
2019-01-27 04:00:00 6.7 3 Norte 11 Nordeste 0 -- -- 94
2019-01-27 03:00:00 5.7 6 Noroeste 13 Este 0 -- -- 76
2019-01-27 02:00:00 8.2 5 Este 8 Este 0 -- -- 65
2019-01-27 01:00:00 8.8 7 Este 10 Este 0 -- -- 64
2019-01-27 00:00:00 9.3 2 Este 3 Este 0 -- -- 64
2019-01-26 23:00:00 10.1 2 Sudoeste 6 Sudoeste 0 -- -- 60
2019-01-26 22:00:00 10.4 4 Sur 10 Sudoeste 0 -- -- 57
2019-01-26 21:00:00 10.5 9 Sur 12 Sudoeste 0 -- -- 55
2019-01-26 20:00:00 11.8 7 Oeste 14 Oeste 0 -- -- 51
2019-01-26 19:00:00 14 9 Oeste 14 Noroeste 0 -- -- 44
2019-01-26 18:00:00 16.8 9 Noroeste 21 Noroeste 0 -- -- 39
2019-01-26 17:00:00 18.9 11 Noroeste 19 Oeste 0 -- -- 33
2019-01-26 16:00:00 19.4 9 Oeste 17 Oeste 0 -- -- 28
2019-01-26 15:00:00 18.6 5 Noroeste 13 Noroeste 0 -- -- 32
2019-01-26 14:00:00 17.3 4 Noroeste 9 Norte 0 -- -- 34
2019-01-26 13:00:00 15.7 4 Norte 9 Nordeste 0 -- -- 35
2019-01-26 12:00:00 13.4 8 Nordeste 14 Nordeste 0 -- -- 45
2019-01-26 11:00:00 10.6 9 Este 14 Este 0 -- -- 51
2019-01-26 10:00:00 8.9 4 Sudeste 10 Sur 0 -- -- 60
2019-01-26 09:00:00 6.1 5 Sudeste 14 Sur 0 -- -- 66
2019-01-26 08:00:00 6.5 6 Sudeste 11 Nordeste 0 -- -- 66
2019-01-26 07:00:00 7.6 9 Este 14 Este 0 -- -- 63
2019-01-26 06:00:00 7.7 6 Nordeste 10 Nordeste 0 -- -- 63
2019-01-26 05:00:00 7.3 6 Nordeste 13 Este 0 -- -- 67
2019-01-26 04:00:00 7.6 8 Nordeste 12 Nordeste 0 -- -- 68
2019-01-26 03:00:00 9.2 9 Nordeste 11 Nordeste 0 -- -- 56
2019-01-26 02:00:00 10.1 7 Este 12 Este 0 -- -- 52
2019-01-26 01:00:00 9.9 3 Este 4 Nordeste 0 -- -- 58
2019-01-26 00:00:00 10.1 0 Calma 7 Este 0 -- -- 57
2019-01-25 23:00:00 10.7 3 Este 12 Nordeste 0 -- -- 55
2019-01-25 22:00:00 11.1 3 Nordeste 10 Norte 0 -- -- 54
2019-01-25 21:00:00 11.5 5 Nordeste 26 Nordeste 0 -- -- 53
2019-01-25 20:00:00 13.2 13 Nordeste 23 Nordeste 0 -- -- 47
2019-01-25 19:00:00 13.9 5 Nordeste 27 Norte 0 -- -- 44
2019-01-25 18:00:00 15.6 16 Norte 28 Norte 0 -- -- 40
2019-01-25 17:00:00 16.9 15 Norte 29 Noroeste 0 -- -- 38
2019-01-25 16:00:00 17.5 14 Nordeste 31 Norte 0 -- -- 35
2019-01-25 15:00:00 17.3 5 Nordeste 18 Nordeste 0 -- -- 47
2019-01-25 14:00:00 16.1 8 Nordeste 15 Norte 0 -- -- 60
2019-01-25 13:00:00 14.1 6 Nordeste 9 Norte 0 -- -- 66
2019-01-25 12:00:00 12 3 Norte 5 Norte 0 -- -- 77
2019-01-25 11:00:00 9.7 3 Nordeste 9 Este 0 -- -- 83
2019-01-25 10:00:00 7.3 5 Nordeste 11 Nordeste 0 -- -- 90
2019-01-25 09:00:00 6 8 Nordeste 12 Este 0 -- -- 94
2019-01-25 08:00:00 6 10 Nordeste 12 Nordeste 0 -- -- 93
2019-01-25 07:00:00 6 8 Nordeste 10 Nordeste 0 -- -- 95
2019-01-25 06:00:00 5.9 8 Nordeste 13 Nordeste 0 -- -- 93
2019-01-25 05:00:00 6 0 Calma 14 Nordeste 0 -- -- 93
2019-01-25 04:00:00 6.6 4 Nordeste 13 Nordeste 0 -- -- 91
2019-01-25 03:00:00 7.4 3 Sur 9 Nordeste 0 -- -- 90
2019-01-25 02:00:00 7.4 5 Nordeste 13 Este 0 -- -- 90
2019-01-25 01:00:00 7.7 4 Este 12 Nordeste 0 -- -- 87
2019-01-25 00:00:00 8.7 4 Nordeste 9 Este 0 -- -- 80
2019-01-24 23:00:00 9.4 5 Este 9 Este 0 -- -- 78
2019-01-24 22:00:00 10.1 0 Calma -- -- 0 -- -- 73
2019-01-24 21:00:00 10.3 2 Sur 5 Oeste 0 -- -- 71
2019-01-24 20:00:00 10.8 4 Norte 8 Norte 0 -- -- 69
2019-01-24 19:00:00 11.5 6 Norte 10 Norte 0 -- -- 66
2019-01-24 18:00:00 13 6 Norte 15 Norte 0 -- -- 61
2019-01-24 17:00:00 13 8 Norte 20 Norte 0 -- -- 60
2019-01-24 16:00:00 13.6 11 Norte 20 Norte 0 -- -- 58
2019-01-24 15:00:00 13.1 6 Noroeste 15 Noroeste 0 -- -- 62
2019-01-24 14:00:00 12.2 10 Noroeste 21 Oeste 0 -- -- 67
2019-01-24 13:00:00 11.7 11 Oeste 19 Oeste 0 -- -- 73
2019-01-24 12:00:00 10.3 6 Oeste 16 Oeste 0 -- -- 79
2019-01-24 11:00:00 9.9 9 Noroeste 22 Oeste 0 -- -- 81
2019-01-24 10:00:00 9.9 14 Oeste 27 Oeste 0 -- -- 80
2019-01-24 09:00:00 9.7 14 Oeste 24 Oeste 0 -- -- 81
2019-01-24 08:00:00 9.7 13 Oeste 24 Oeste 0 -- -- 81
2019-01-24 07:00:00 9.8 11 Oeste 25 Oeste 0 -- -- 80
2019-01-24 06:00:00 10.1 14 Oeste 23 Oeste 0 -- -- 78
2019-01-24 05:00:00 10.2 14 Oeste 28 Oeste 0 -- -- 77
2019-01-24 04:00:00 10.2 15 Noroeste 28 Oeste 0 -- -- 78
2019-01-24 03:00:00 10.1 12 Oeste 27 Oeste 0 -- -- 78
2019-01-24 02:00:00 10.1 14 Oeste 26 Oeste 0 -- -- 78
2019-01-24 01:00:00 10.4 13 Oeste 25 Sudoeste 0 -- -- 74
2019-01-24 00:00:00 10.3 7 Oeste 36 Oeste 0 -- -- 73
2019-01-23 23:00:00 10.7 21 Oeste 41 Oeste 0 -- -- 69
2019-01-23 22:00:00 11.1 23 Oeste 41 Oeste 0 -- -- 68
2019-01-23 21:00:00 11.2 20 Oeste 36 Oeste 0 -- -- 68
2019-01-23 20:00:00 11.2 24 Oeste 37 Oeste 0 -- -- 67
2019-01-23 19:00:00 11.3 20 Oeste 41 Noroeste 0 -- -- 67
2019-01-23 18:00:00 11.6 22 Oeste 40 Oeste 0 -- -- 66
2019-01-23 17:00:00 11.7 20 Noroeste 38 Noroeste 0 -- -- 64
2019-01-23 16:00:00 11.9 24 Noroeste 39 Oeste 0 -- -- 61
2019-01-23 15:00:00 10.7 17 Oeste 33 Oeste 0 -- -- 72
2019-01-23 14:00:00 10 20 Oeste 34 Noroeste 0 -- -- 74
2019-01-23 13:00:00 9.4 22 Oeste 30 Oeste 0 -- -- 79
2019-01-23 12:00:00 8.1 10 Noroeste 21 Noroeste 0 -- -- 83
2019-01-23 11:00:00 7.6 9 Oeste 20 Oeste 0 -- -- 85
2019-01-23 10:00:00 6.8 10 Oeste 24 Oeste 0 -- -- 87
2019-01-23 09:00:00 6.7 8 Oeste 20 Oeste 0 -- -- 87
2019-01-23 08:00:00 6.7 6 Oeste 27 Oeste 0 -- -- 86
2019-01-23 07:00:00 6.6 13 Oeste 25 Noroeste 0 -- -- 87
2019-01-23 06:00:00 6.5 15 Oeste 27 Oeste 0 -- -- 90
2019-01-23 05:00:00 6.9 14 Oeste 26 Oeste 0 -- -- 89
2019-01-23 04:00:00 7.5 13 Oeste 36 Oeste 0 -- -- 89
2019-01-23 03:00:00 7.9 20 Oeste 34 Oeste 0 -- -- 87
2019-01-23 02:00:00 8.1 18 Oeste 30 Noroeste 0 -- -- 86
2019-01-23 01:00:00 8.2 9 Sudoeste 32 Oeste 0 -- -- 81
2019-01-23 00:00:00 8.5 15 Oeste 26 Oeste 0 -- -- 76
2019-01-22 23:00:00 8.7 16 Oeste 35 Oeste 0 -- -- 71
2019-01-22 22:00:00 8.6 20 Oeste 36 Oeste 0 -- -- 69
2019-01-22 21:00:00 8.4 18 Oeste 28 Oeste 0 -- -- 68
2019-01-22 20:00:00 8.2 14 Oeste 26 Oeste 0 -- -- 66
2019-01-22 19:00:00 8.2 10 Oeste 21 Noroeste 0 -- -- 65
2019-01-22 18:00:00 8.3 12 Noroeste 26 Noroeste 0 -- -- 64
2019-01-22 17:00:00 8.2 17 Noroeste 29 Noroeste 0 -- -- 64
2019-01-22 16:00:00 8.6 17 Oeste 31 Oeste 0 -- -- 63
2019-01-22 15:00:00 9.3 18 Noroeste 31 Noroeste 0 -- -- 62
2019-01-22 14:00:00 9.6 6 Noroeste 13 Oeste 0 -- -- 55
2019-01-22 13:00:00 8.7 3 Noroeste 10 Nordeste 0 -- -- 62
2019-01-22 12:00:00 6.4 4 Norte 9 Nordeste 0 -- -- 75
2019-01-22 11:00:00 3.8 5 Este 8 Nordeste 0 -- -- 85
2019-01-22 10:00:00 2.9 3 Sudeste 10 Nordeste 0 -- -- 88
2019-01-22 09:00:00 1.1 9 Este 11 Este 0 -- -- 91
2019-01-22 08:00:00 1.2 4 Este 12 Este 0 -- -- 90
2019-01-22 07:00:00 1.5 3 Este 8 Este 0 -- -- 89
2019-01-22 06:00:00 2.1 5 Sudeste 9 Sudeste 0 -- -- 83
2019-01-22 05:00:00 2.3 3 Sudeste 9 Este 0 -- -- 82
2019-01-22 04:00:00 2.2 7 Sur 10 Sudeste 0 -- -- 81
2019-01-22 03:00:00 3 3 Sudeste 9 Sur 0 -- -- 77
2019-01-22 02:00:00 3.3 7 Sur 9 Sur 0 -- -- 76
2019-01-22 01:00:00 4.2 4 Sudeste 6 Sudeste 0 -- -- 71
2019-01-22 00:00:00 4.6 0 Calma 5 Este 0 -- -- 71
2019-01-21 23:00:00 5.6 5 Este 6 Este 0 -- -- 66
2019-01-21 22:00:00 6.1 2 Nordeste 3 Nordeste 0 -- -- 63
2019-01-21 21:00:00 7 2 Nordeste 7 Nordeste 0 -- -- 58
2019-01-21 20:00:00 7.6 5 Norte 17 Norte 0 -- -- 55
2019-01-21 19:00:00 8.7 9 Norte 17 Norte 0 -- -- 51
2019-01-21 18:00:00 10.1 12 Norte 24 Norte 0 -- -- 46
2019-01-21 17:00:00 10.9 15 Norte 25 Noroeste 0 -- -- 43
2019-01-21 16:00:00 11.1 17 Norte 28 Noroeste 0 -- -- 45
2019-01-21 15:00:00 10.9 18 Noroeste 31 Noroeste 0 -- -- 55
2019-01-21 14:00:00 10.1 11 Noroeste 17 Noroeste 0 -- -- 66
2019-01-21 13:00:00 8.8 6 Oeste 13 Oeste 0 -- -- 76
2019-01-21 12:00:00 7 4 Noroeste 9 Noroeste 0 -- -- 84
2019-01-21 11:00:00 6 3 Sudoeste 6 Sudoeste 0 -- -- 89
2019-01-21 10:00:00 3.9 0 Calma 3 Nordeste 0 -- -- 95
2019-01-21 09:00:00 2.2 0 Calma 4 Nordeste 0 -- -- 94
2019-01-21 08:00:00 3.1 2 Nordeste 5 Este 0 -- -- 93
2019-01-21 07:00:00 3.4 2 Nordeste 4 Nordeste 0 -- -- 94
2019-01-21 06:00:00 3.4 3 Oeste 4 Oeste 0 -- -- 93
2019-01-21 05:00:00 3.6 2 Sudeste 6 Nordeste 0 -- -- 93
2019-01-21 04:00:00 4 0 Calma 4 Norte 0 -- -- 93
2019-01-21 03:00:00 4.3 3 Noroeste 6 Noroeste 0 -- -- 92
2019-01-21 02:00:00 4.7 4 Oeste 6 Noroeste 0 -- -- 91
2019-01-21 01:00:00 5.2 0 Calma 7 Noroeste 0 -- -- 88
2019-01-21 00:00:00 5.6 4 Noroeste 14 Oeste 0 -- -- 87
2019-01-20 23:00:00 5.8 4 Oeste 6 Noroeste 0 -- -- 85
2019-01-20 22:00:00 6.7 4 Noroeste 12 Oeste 0 -- -- 82
2019-01-20 21:00:00 7.8 10 Norte 15 Norte 0 -- -- 77
2019-01-20 20:00:00 8.1 8 Noroeste 19 Noroeste 0 -- -- 79
2019-01-20 19:00:00 9.1 10 Noroeste 18 Norte 0 -- -- 83
2019-01-20 18:00:00 9.7 7 Noroeste 14 Norte 0 -- -- 89
2019-01-20 17:00:00 9.5 8 Norte 13 Noroeste 0.2 -- -- 92
2019-01-20 16:00:00 9 8 Noroeste 27 Oeste 0.8 -- -- 93
2019-01-20 15:00:00 8.9 17 Noroeste 33 Noroeste 0.2 -- -- 94
2019-01-20 14:00:00 8.6 19 Oeste 35 Noroeste 0 -- -- 94
2019-01-20 13:00:00 8.9 21 Oeste 39 Oeste 0 -- -- 92
2019-01-20 12:00:00 8.9 20 Oeste 34 Oeste 0 -- -- 94
2019-01-20 11:00:00 8.8 24 Oeste 39 Oeste 0 -- -- 96
2019-01-20 10:00:00 9.3 21 Oeste 37 Oeste 0.4 -- -- 96
2019-01-20 09:00:00 9.5 19 Oeste 32 Oeste 1 -- -- 96
2019-01-20 08:00:00 9.6 22 Oeste 34 Sudoeste 0.2 -- -- 96
2019-01-20 07:00:00 9.6 21 Oeste 31 Sudoeste 0.2 -- -- 96
2019-01-20 06:00:00 9.7 17 Oeste 29 Oeste 0.8 -- -- 96
2019-01-20 05:00:00 9.7 17 Oeste 30 Oeste 0 -- -- 95
2019-01-20 04:00:00 9.8 8 Oeste 21 Oeste 0 -- -- 95
2019-01-20 03:00:00 10 14 Oeste 33 Sudoeste 0.2 -- -- 95
2019-01-20 02:00:00 9.5 22 Sudoeste 33 Sudoeste 1 -- -- 95
2019-01-20 01:00:00 9.3 10 Sur 26 Sur 0.6 -- -- 95
2019-01-20 00:00:00 9.2 18 Sur 35 Sudoeste 1 -- -- 95
2019-01-19 23:00:00 9.2 22 Sur 33 Sudoeste 0.8 -- -- 95
2019-01-19 22:00:00 8.7 11 Sur 17 Sur 0.8 -- -- 94
2019-01-19 21:00:00 8.4 13 Sur 17 Sur 0 -- -- 94
2019-01-19 20:00:00 8.3 9 Sur 13 Sur 0 -- -- 93
2019-01-19 19:00:00 8.4 4 Sudoeste 9 Sudoeste 0.4 -- -- 91
2019-01-19 18:00:00 8.9 8 Sudoeste 13 Sudoeste 0 -- -- 85
2019-01-19 17:00:00 9.2 4 Noroeste 13 Noroeste 0 -- -- 83
2019-01-19 16:00:00 9.7 9 Noroeste 15 Oeste 0 -- -- 80
2019-01-19 15:00:00 10.5 7 Oeste 16 Oeste 0 -- -- 71
2019-01-19 14:00:00 11.1 8 Oeste 17 Oeste 0 -- -- 67
2019-01-19 13:00:00 11.4 5 Oeste 11 Oeste 0 -- -- 64
2019-01-19 12:00:00 9.9 4 Noroeste 9 Noroeste 0 -- -- 70
2019-01-19 11:00:00 8.2 0 Calma 6 Este 0 -- -- 73
2019-01-19 10:00:00 6.4 4 Nordeste 8 Nordeste 0 -- -- 80
2019-01-19 09:00:00 5.5 6 Nordeste 9 Este 0 -- -- 85
2019-01-19 08:00:00 5.7 2 Sudeste 4 Este 0 -- -- 83
2019-01-19 07:00:00 5.9 0 Calma 4 Este 0 -- -- 82
2019-01-19 06:00:00 6.1 3 Nordeste 4 Nordeste 0 -- -- 78
2019-01-19 05:00:00 6 0 Calma 5 Sudoeste 0 -- -- 77
2019-01-19 04:00:00 5.7 3 Sudoeste 6 Sudoeste 0 -- -- 77
2019-01-19 03:00:00 6 0 Calma 9 Sur 0 -- -- 75
2019-01-19 02:00:00 6.7 5 Sudoeste 12 Sudoeste 0 -- -- 73
2019-01-19 01:00:00 6.9 9 Sudoeste 12 Sudoeste 0 -- -- 72
2019-01-19 00:00:00 6.6 9 Sur 13 Sudoeste 0 -- -- 74